sensor_id;sensor_type;location;lat;lon;timestamp;P1;durP1;ratioP1;P2;durP2;ratioP2
56712;SDS011;42589;45.536;9.032;2023-01-29T00:00:04;64.80;;;40.90;;
56712;SDS011;42589;45.536;9.032;2023-01-29T00:03:09;67.28;;;39.42;;
56712;SDS011;42589;45.536;9.032;2023-01-29T00:06:10;62.22;;;40.60;;
56712;SDS011;42589;45.536;9.032;2023-01-29T00:09:12;61.60;;;38.85;;
56712;SDS011;42589;45.536;9.032;2023-01-29T00:12:13;66.35;;;41.25;;
56712;SDS011;42589;45.536;9.032;2023-01-29T00:15:15;64.88;;;42.35;;
56712;SDS011;42589;45.536;9.032;2023-01-29T00:18:16;62.00;;;40.53;;
56712;SDS011;42589;45.536;9.032;2023-01-29T00:21:18;61.30;;;39.47;;
56712;SDS011;42589;45.536;9.032;2023-01-29T00:24:21;66.53;;;40.60;;
56712;SDS011;42589;45.536;9.032;2023-01-29T00:27:24;61.80;;;39.97;;
56712;SDS011;42589;45.536;9.032;2023-01-29T00:30:25;67.35;;;40.92;;
56712;SDS011;42589;45.536;9.032;2023-01-29T00:33:27;70.50;;;41.47;;
56712;SDS011;42589;45.536;9.032;2023-01-29T00:36:28;59.85;;;38.97;;
56712;SDS011;42589;45.536;9.032;2023-01-29T00:39:30;63.60;;;39.83;;
56712;SDS011;42589;45.536;9.032;2023-01-29T00:42:38;65.32;;;41.38;;
56712;SDS011;42589;45.536;9.032;2023-01-29T00:45:58;62.97;;;40.15;;
56712;SDS011;42589;45.536;9.032;2023-01-29T00:48:59;62.15;;;38.75;;
56712;SDS011;42589;45.536;9.032;2023-01-29T00:52:00;58.30;;;39.05;;
56712;SDS011;42589;45.536;9.032;2023-01-29T00:55:19;68.32;;;38.47;;
56712;SDS011;42589;45.536;9.032;2023-01-29T00:58:26;66.10;;;39.30;;
56712;SDS011;42589;45.536;9.032;2023-01-29T01:01:33;62.20;;;40.53;;
56712;SDS011;42589;45.536;9.032;2023-01-29T01:04:54;64.20;;;40.63;;
56712;SDS011;42589;45.536;9.032;2023-01-29T01:07:56;62.13;;;40.55;;
56712;SDS011;42589;45.536;9.032;2023-01-29T01:10:59;63.63;;;39.83;;
56712;SDS011;42589;45.536;9.032;2023-01-29T01:14:06;64.43;;;38.97;;
56712;SDS011;42589;45.536;9.032;2023-01-29T01:17:07;66.18;;;38.83;;
56712;SDS011;42589;45.536;9.032;2023-01-29T01:20:09;65.18;;;39.08;;
56712;SDS011;42589;45.536;9.032;2023-01-29T01:23:11;63.90;;;39.90;;
56712;SDS011;42589;45.536;9.032;2023-01-29T01:26:12;64.95;;;41.55;;
56712;SDS011;42589;45.536;9.032;2023-01-29T01:29:13;66.55;;;39.03;;
56712;SDS011;42589;45.536;9.032;2023-01-29T01:32:14;70.03;;;38.83;;
56712;SDS011;42589;45.536;9.032;2023-01-29T01:35:16;63.70;;;38.70;;
56712;SDS011;42589;45.536;9.032;2023-01-29T01:38:16;68.72;;;40.10;;
56712;SDS011;42589;45.536;9.032;2023-01-29T01:41:19;59.88;;;37.38;;
56712;SDS011;42589;45.536;9.032;2023-01-29T01:48:13;73.30;;;41.08;;
56712;SDS011;42589;45.536;9.032;2023-01-29T01:51:14;71.15;;;38.50;;
56712;SDS011;42589;45.536;9.032;2023-01-29T01:54:20;68.28;;;39.42;;
56712;SDS011;42589;45.536;9.032;2023-01-29T01:57:24;66.68;;;37.45;;
56712;SDS011;42589;45.536;9.032;2023-01-29T02:00:28;61.97;;;38.40;;
56712;SDS011;42589;45.536;9.032;2023-01-29T02:03:29;65.10;;;38.17;;
56712;SDS011;42589;45.536;9.032;2023-01-29T02:06:51;62.47;;;39.10;;
56712;SDS011;42589;45.536;9.032;2023-01-29T02:10:16;62.90;;;37.58;;
56712;SDS011;42589;45.536;9.032;2023-01-29T02:13:19;64.25;;;39.63;;
56712;SDS011;42589;45.536;9.032;2023-01-29T02:16:21;57.00;;;37.35;;
56712;SDS011;42589;45.536;9.032;2023-01-29T02:26:39;62.53;;;37.25;;
56712;SDS011;42589;45.536;9.032;2023-01-29T02:33:30;58.40;;;34.17;;
56712;SDS011;42589;45.536;9.032;2023-01-29T02:46:36;58.17;;;34.33;;
56712;SDS011;42589;45.536;9.032;2023-01-29T02:50:02;57.30;;;34.55;;
56712;SDS011;42589;45.536;9.032;2023-01-29T02:53:08;55.35;;;30.77;;
56712;SDS011;42589;45.536;9.032;2023-01-29T02:56:44;55.05;;;32.25;;
56712;SDS011;42589;45.536;9.032;2023-01-29T02:59:53;60.47;;;33.05;;
56712;SDS011;42589;45.536;9.032;2023-01-29T03:03:00;54.33;;;32.72;;
56712;SDS011;42589;45.536;9.032;2023-01-29T03:06:08;55.35;;;33.00;;
56712;SDS011;42589;45.536;9.032;2023-01-29T03:09:21;55.70;;;31.85;;
56712;SDS011;42589;45.536;9.032;2023-01-29T03:12:27;51.97;;;31.85;;
56712;SDS011;42589;45.536;9.032;2023-01-29T03:15:38;53.38;;;31.50;;
56712;SDS011;42589;45.536;9.032;2023-01-29T03:18:51;58.20;;;31.48;;
56712;SDS011;42589;45.536;9.032;2023-01-29T03:21:59;56.30;;;32.58;;
56712;SDS011;42589;45.536;9.032;2023-01-29T03:25:03;50.95;;;28.90;;
56712;SDS011;42589;45.536;9.032;2023-01-29T03:28:23;51.55;;;31.20;;
56712;SDS011;42589;45.536;9.032;2023-01-29T03:31:48;52.53;;;30.33;;
56712;SDS011;42589;45.536;9.032;2023-01-29T03:35:07;48.42;;;31.83;;
56712;SDS011;42589;45.536;9.032;2023-01-29T03:38:10;51.78;;;31.58;;
56712;SDS011;42589;45.536;9.032;2023-01-29T03:50:42;49.60;;;31.60;;
56712;SDS011;42589;45.536;9.032;2023-01-29T03:54:00;51.20;;;31.02;;
56712;SDS011;42589;45.536;9.032;2023-01-29T04:00:33;50.05;;;30.27;;
56712;SDS011;42589;45.536;9.032;2023-01-29T04:03:51;50.95;;;31.55;;
56712;SDS011;42589;45.536;9.032;2023-01-29T04:07:17;53.38;;;29.63;;
56712;SDS011;42589;45.536;9.032;2023-01-29T04:10:26;52.25;;;29.60;;
56712;SDS011;42589;45.536;9.032;2023-01-29T04:13:29;49.10;;;29.83;;
56712;SDS011;42589;45.536;9.032;2023-01-29T04:16:35;50.33;;;29.77;;
56712;SDS011;42589;45.536;9.032;2023-01-29T04:19:39;52.13;;;29.98;;
56712;SDS011;42589;45.536;9.032;2023-01-29T04:22:44;51.55;;;28.92;;
56712;SDS011;42589;45.536;9.032;2023-01-29T04:25:50;50.63;;;28.10;;
56712;SDS011;42589;45.536;9.032;2023-01-29T04:29:21;49.25;;;30.33;;
56712;SDS011;42589;45.536;9.032;2023-01-29T04:39:25;48.42;;;28.38;;
56712;SDS011;42589;45.536;9.032;2023-01-29T04:49:17;49.67;;;28.08;;
56712;SDS011;42589;45.536;9.032;2023-01-29T04:55:49;49.60;;;29.65;;
56712;SDS011;42589;45.536;9.032;2023-01-29T04:58:56;52.22;;;27.58;;
56712;SDS011;42589;45.536;9.032;2023-01-29T05:02:03;50.13;;;28.83;;
56712;SDS011;42589;45.536;9.032;2023-01-29T05:05:07;45.58;;;27.55;;
56712;SDS011;42589;45.536;9.032;2023-01-29T05:08:11;52.35;;;29.83;;
56712;SDS011;42589;45.536;9.032;2023-01-29T05:11:17;47.10;;;27.23;;
56712;SDS011;42589;45.536;9.032;2023-01-29T05:14:19;45.90;;;27.15;;
56712;SDS011;42589;45.536;9.032;2023-01-29T05:17:24;49.75;;;27.45;;
56712;SDS011;42589;45.536;9.032;2023-01-29T05:20:25;45.08;;;27.90;;
56712;SDS011;42589;45.536;9.032;2023-01-29T05:23:27;42.92;;;26.38;;
56712;SDS011;42589;45.536;9.032;2023-01-29T05:26:28;49.80;;;26.80;;
56712;SDS011;42589;45.536;9.032;2023-01-29T05:29:47;43.08;;;25.20;;
56712;SDS011;42589;45.536;9.032;2023-01-29T05:32:48;47.80;;;26.25;;
56712;SDS011;42589;45.536;9.032;2023-01-29T05:35:49;45.65;;;25.10;;
56712;SDS011;42589;45.536;9.032;2023-01-29T05:38:51;42.97;;;26.92;;
56712;SDS011;42589;45.536;9.032;2023-01-29T05:41:52;44.88;;;26.83;;
56712;SDS011;42589;45.536;9.032;2023-01-29T05:44:53;46.22;;;29.17;;
56712;SDS011;42589;45.536;9.032;2023-01-29T05:47:58;46.88;;;25.48;;
56712;SDS011;42589;45.536;9.032;2023-01-29T05:51:03;43.78;;;23.50;;
56712;SDS011;42589;45.536;9.032;2023-01-29T05:54:04;44.42;;;27.80;;
56712;SDS011;42589;45.536;9.032;2023-01-29T05:57:05;41.45;;;25.92;;
56712;SDS011;42589;45.536;9.032;2023-01-29T06:00:07;44.00;;;26.80;;
56712;SDS011;42589;45.536;9.032;2023-01-29T06:03:08;43.22;;;23.73;;
56712;SDS011;42589;45.536;9.032;2023-01-29T06:06:10;43.75;;;24.98;;
56712;SDS011;42589;45.536;9.032;2023-01-29T06:09:12;42.70;;;24.92;;
56712;SDS011;42589;45.536;9.032;2023-01-29T06:12:13;38.47;;;22.80;;
56712;SDS011;42589;45.536;9.032;2023-01-29T06:15:14;42.63;;;25.38;;
56712;SDS011;42589;45.536;9.032;2023-01-29T06:18:15;41.40;;;23.08;;
56712;SDS011;42589;45.536;9.032;2023-01-29T06:21:16;41.47;;;23.85;;
56712;SDS011;42589;45.536;9.032;2023-01-29T06:24:17;42.53;;;23.40;;
56712;SDS011;42589;45.536;9.032;2023-01-29T06:27:18;41.13;;;24.83;;
56712;SDS011;42589;45.536;9.032;2023-01-29T06:30:19;40.50;;;24.17;;
56712;SDS011;42589;45.536;9.032;2023-01-29T06:33:21;43.42;;;24.60;;
56712;SDS011;42589;45.536;9.032;2023-01-29T06:36:24;38.45;;;22.70;;
56712;SDS011;42589;45.536;9.032;2023-01-29T06:39:25;43.40;;;23.67;;
56712;SDS011;42589;45.536;9.032;2023-01-29T06:42:26;40.17;;;22.40;;
56712;SDS011;42589;45.536;9.032;2023-01-29T06:45:26;41.63;;;23.65;;
56712;SDS011;42589;45.536;9.032;2023-01-29T06:48:28;42.22;;;23.45;;
56712;SDS011;42589;45.536;9.032;2023-01-29T06:51:30;38.83;;;24.33;;
56712;SDS011;42589;45.536;9.032;2023-01-29T06:54:30;42.65;;;24.48;;
56712;SDS011;42589;45.536;9.032;2023-01-29T06:57:32;40.70;;;23.90;;
56712;SDS011;42589;45.536;9.032;2023-01-29T07:00:36;44.10;;;23.95;;
56712;SDS011;42589;45.536;9.032;2023-01-29T07:03:37;41.83;;;23.83;;
56712;SDS011;42589;45.536;9.032;2023-01-29T07:06:40;43.17;;;24.63;;
56712;SDS011;42589;45.536;9.032;2023-01-29T07:09:41;39.90;;;23.00;;
56712;SDS011;42589;45.536;9.032;2023-01-29T07:12:42;39.50;;;22.95;;
56712;SDS011;42589;45.536;9.032;2023-01-29T07:15:43;39.97;;;22.83;;
56712;SDS011;42589;45.536;9.032;2023-01-29T07:18:44;44.40;;;25.27;;
56712;SDS011;42589;45.536;9.032;2023-01-29T07:21:45;41.70;;;25.27;;
56712;SDS011;42589;45.536;9.032;2023-01-29T07:24:46;44.00;;;25.00;;
56712;SDS011;42589;45.536;9.032;2023-01-29T07:27:47;45.55;;;23.50;;
56712;SDS011;42589;45.536;9.032;2023-01-29T07:30:48;63.50;;;26.00;;
56712;SDS011;42589;45.536;9.032;2023-01-29T07:33:50;51.33;;;23.27;;
56712;SDS011;42589;45.536;9.032;2023-01-29T07:36:53;59.40;;;27.42;;
56712;SDS011;42589;45.536;9.032;2023-01-29T07:39:55;49.55;;;24.77;;
56712;SDS011;42589;45.536;9.032;2023-01-29T07:42:58;46.50;;;23.98;;
56712;SDS011;42589;45.536;9.032;2023-01-29T07:46:02;47.88;;;26.00;;
56712;SDS011;42589;45.536;9.032;2023-01-29T07:49:03;40.20;;;23.92;;
56712;SDS011;42589;45.536;9.032;2023-01-29T07:52:04;47.33;;;26.52;;
56712;SDS011;42589;45.536;9.032;2023-01-29T07:55:05;45.53;;;28.73;;
56712;SDS011;42589;45.536;9.032;2023-01-29T07:58:07;47.58;;;27.58;;
56712;SDS011;42589;45.536;9.032;2023-01-29T08:01:08;39.35;;;24.52;;
56712;SDS011;42589;45.536;9.032;2023-01-29T08:04:09;43.60;;;26.65;;
56712;SDS011;42589;45.536;9.032;2023-01-29T08:07:10;40.70;;;24.70;;
56712;SDS011;42589;45.536;9.032;2023-01-29T08:10:12;41.38;;;23.95;;
56712;SDS011;42589;45.536;9.032;2023-01-29T08:13:15;40.83;;;25.52;;
56712;SDS011;42589;45.536;9.032;2023-01-29T08:16:16;43.47;;;25.25;;
56712;SDS011;42589;45.536;9.032;2023-01-29T08:19:17;38.25;;;25.05;;
56712;SDS011;42589;45.536;9.032;2023-01-29T08:22:18;39.65;;;25.30;;
56712;SDS011;42589;45.536;9.032;2023-01-29T08:25:19;42.78;;;27.10;;
56712;SDS011;42589;45.536;9.032;2023-01-29T08:28:20;42.58;;;26.08;;
56712;SDS011;42589;45.536;9.032;2023-01-29T08:31:22;38.67;;;25.35;;
56712;SDS011;42589;45.536;9.032;2023-01-29T08:34:24;43.70;;;26.55;;
56712;SDS011;42589;45.536;9.032;2023-01-29T08:37:25;43.80;;;27.63;;
56712;SDS011;42589;45.536;9.032;2023-01-29T08:40:26;42.40;;;26.30;;
56712;SDS011;42589;45.536;9.032;2023-01-29T08:43:27;40.72;;;27.88;;
56712;SDS011;42589;45.536;9.032;2023-01-29T08:46:28;49.85;;;28.95;;
56712;SDS011;42589;45.536;9.032;2023-01-29T08:49:30;39.80;;;27.08;;
56712;SDS011;42589;45.536;9.032;2023-01-29T08:52:31;43.85;;;26.90;;
56712;SDS011;42589;45.536;9.032;2023-01-29T08:55:34;42.58;;;26.70;;
56712;SDS011;42589;45.536;9.032;2023-01-29T08:58:36;42.70;;;26.97;;
56712;SDS011;42589;45.536;9.032;2023-01-29T09:01:37;40.92;;;26.63;;
56712;SDS011;42589;45.536;9.032;2023-01-29T09:04:38;45.95;;;26.70;;
56712;SDS011;42589;45.536;9.032;2023-01-29T09:07:39;42.03;;;26.17;;
56712;SDS011;42589;45.536;9.032;2023-01-29T09:10:40;39.58;;;26.08;;
56712;SDS011;42589;45.536;9.032;2023-01-29T09:13:41;41.00;;;26.50;;
56712;SDS011;42589;45.536;9.032;2023-01-29T09:16:42;41.67;;;26.38;;
56712;SDS011;42589;45.536;9.032;2023-01-29T09:19:46;41.92;;;27.27;;
56712;SDS011;42589;45.536;9.032;2023-01-29T09:22:47;39.22;;;26.13;;
56712;SDS011;42589;45.536;9.032;2023-01-29T09:25:49;40.65;;;26.98;;
56712;SDS011;42589;45.536;9.032;2023-01-29T09:28:51;39.05;;;25.42;;
56712;SDS011;42589;45.536;9.032;2023-01-29T09:31:52;38.50;;;25.67;;
56712;SDS011;42589;45.536;9.032;2023-01-29T09:34:53;38.38;;;26.60;;
56712;SDS011;42589;45.536;9.032;2023-01-29T09:37:55;42.58;;;27.40;;
56712;SDS011;42589;45.536;9.032;2023-01-29T09:44:03;39.65;;;26.77;;
56712;SDS011;42589;45.536;9.032;2023-01-29T09:47:23;41.45;;;26.90;;
56712;SDS011;42589;45.536;9.032;2023-01-29T09:50:45;39.53;;;27.95;;
56712;SDS011;42589;45.536;9.032;2023-01-29T09:54:31;42.25;;;27.65;;
56712;SDS011;42589;45.536;9.032;2023-01-29T09:57:40;43.00;;;28.75;;
56712;SDS011;42589;45.536;9.032;2023-01-29T10:14:22;40.00;;;27.73;;
56712;SDS011;42589;45.536;9.032;2023-01-29T10:24:59;43.38;;;29.08;;
56712;SDS011;42589;45.536;9.032;2023-01-29T10:31:48;43.75;;;28.75;;
56712;SDS011;42589;45.536;9.032;2023-01-29T10:34:56;39.38;;;27.92;;
56712;SDS011;42589;45.536;9.032;2023-01-29T10:38:11;44.22;;;28.88;;
56712;SDS011;42589;45.536;9.032;2023-01-29T10:44:34;37.03;;;24.63;;
56712;SDS011;42589;45.536;9.032;2023-01-29T10:53:52;40.25;;;26.75;;
56712;SDS011;42589;45.536;9.032;2023-01-29T11:00:19;36.85;;;25.10;;
56712;SDS011;42589;45.536;9.032;2023-01-29T11:06:34;39.70;;;26.80;;
56712;SDS011;42589;45.536;9.032;2023-01-29T11:09:47;38.13;;;25.70;;
56712;SDS011;42589;45.536;9.032;2023-01-29T11:12:51;36.00;;;25.35;;
56712;SDS011;42589;45.536;9.032;2023-01-29T11:15:53;38.58;;;25.80;;
56712;SDS011;42589;45.536;9.032;2023-01-29T11:18:56;35.40;;;24.67;;
56712;SDS011;42589;45.536;9.032;2023-01-29T11:25:14;35.67;;;24.73;;
56712;SDS011;42589;45.536;9.032;2023-01-29T11:28:17;36.08;;;24.95;;
56712;SDS011;42589;45.536;9.032;2023-01-29T11:31:39;34.75;;;24.23;;
56712;SDS011;42589;45.536;9.032;2023-01-29T11:38:08;35.80;;;24.33;;
56712;SDS011;42589;45.536;9.032;2023-01-29T11:41:15;33.17;;;23.60;;
56712;SDS011;42589;45.536;9.032;2023-01-29T11:47:31;39.40;;;26.67;;
56712;SDS011;42589;45.536;9.032;2023-01-29T11:50:32;31.13;;;20.70;;
56712;SDS011;42589;45.536;9.032;2023-01-29T11:53:40;31.38;;;21.55;;
56712;SDS011;42589;45.536;9.032;2023-01-29T11:56:44;32.75;;;22.73;;
56712;SDS011;42589;45.536;9.032;2023-01-29T11:59:48;34.35;;;23.60;;
56712;SDS011;42589;45.536;9.032;2023-01-29T12:03:26;33.25;;;24.10;;
56712;SDS011;42589;45.536;9.032;2023-01-29T12:06:22;35.05;;;23.45;;
56712;SDS011;42589;45.536;9.032;2023-01-29T12:09:27;33.85;;;24.05;;
56712;SDS011;42589;45.536;9.032;2023-01-29T12:15:32;31.77;;;21.90;;
56712;SDS011;42589;45.536;9.032;2023-01-29T12:18:40;29.88;;;21.95;;
56712;SDS011;42589;45.536;9.032;2023-01-29T12:21:52;30.70;;;20.92;;
56712;SDS011;42589;45.536;9.032;2023-01-29T12:25:05;31.70;;;21.98;;
56712;SDS011;42589;45.536;9.032;2023-01-29T12:28:23;27.92;;;20.58;;
56712;SDS011;42589;45.536;9.032;2023-01-29T12:35:05;27.75;;;18.90;;
56712;SDS011;42589;45.536;9.032;2023-01-29T12:38:16;27.83;;;18.92;;
56712;SDS011;42589;45.536;9.032;2023-01-29T12:41:41;28.17;;;19.58;;
56712;SDS011;42589;45.536;9.032;2023-01-29T12:44:57;25.63;;;19.05;;
56712;SDS011;42589;45.536;9.032;2023-01-29T12:48:03;27.73;;;19.67;;
56712;SDS011;42589;45.536;9.032;2023-01-29T12:51:12;27.83;;;19.58;;
56712;SDS011;42589;45.536;9.032;2023-01-29T12:54:18;28.38;;;19.80;;
56712;SDS011;42589;45.536;9.032;2023-01-29T13:00:47;22.20;;;15.13;;
56712;SDS011;42589;45.536;9.032;2023-01-29T13:04:10;21.33;;;15.93;;
56712;SDS011;42589;45.536;9.032;2023-01-29T13:07:13;26.98;;;18.20;;
56712;SDS011;42589;45.536;9.032;2023-01-29T13:10:20;28.02;;;18.77;;
56712;SDS011;42589;45.536;9.032;2023-01-29T13:13:33;23.70;;;17.60;;
56712;SDS011;42589;45.536;9.032;2023-01-29T13:16:42;28.08;;;19.60;;
56712;SDS011;42589;45.536;9.032;2023-01-29T13:19:51;25.88;;;17.13;;
56712;SDS011;42589;45.536;9.032;2023-01-29T13:22:58;24.02;;;16.88;;
56712;SDS011;42589;45.536;9.032;2023-01-29T13:26:12;26.52;;;17.67;;
56712;SDS011;42589;45.536;9.032;2023-01-29T13:32:26;22.80;;;16.08;;
56712;SDS011;42589;45.536;9.032;2023-01-29T13:35:29;24.13;;;16.60;;
56712;SDS011;42589;45.536;9.032;2023-01-29T13:38:31;24.20;;;16.58;;
56712;SDS011;42589;45.536;9.032;2023-01-29T13:41:36;24.80;;;16.50;;
56712;SDS011;42589;45.536;9.032;2023-01-29T13:44:42;23.40;;;16.30;;
56712;SDS011;42589;45.536;9.032;2023-01-29T13:47:51;24.33;;;16.65;;
56712;SDS011;42589;45.536;9.032;2023-01-29T13:50:55;25.92;;;18.23;;
56712;SDS011;42589;45.536;9.032;2023-01-29T13:54:03;26.98;;;18.45;;
56712;SDS011;42589;45.536;9.032;2023-01-29T13:57:20;25.80;;;17.48;;
56712;SDS011;42589;45.536;9.032;2023-01-29T14:06:48;25.42;;;17.95;;
56712;SDS011;42589;45.536;9.032;2023-01-29T14:19:21;25.70;;;17.83;;
56712;SDS011;42589;45.536;9.032;2023-01-29T14:22:25;28.05;;;17.98;;
56712;SDS011;42589;45.536;9.032;2023-01-29T14:25:28;25.08;;;17.65;;
56712;SDS011;42589;45.536;9.032;2023-01-29T14:28:33;24.80;;;17.42;;
56712;SDS011;42589;45.536;9.032;2023-01-29T14:31:36;26.42;;;18.15;;
56712;SDS011;42589;45.536;9.032;2023-01-29T14:34:48;27.27;;;19.33;;
56712;SDS011;42589;45.536;9.032;2023-01-29T14:37:52;26.55;;;18.35;;
56712;SDS011;42589;45.536;9.032;2023-01-29T14:41:03;25.42;;;17.88;;
56712;SDS011;42589;45.536;9.032;2023-01-29T14:50:49;24.75;;;17.77;;
56712;SDS011;42589;45.536;9.032;2023-01-29T14:54:11;25.27;;;17.98;;
56712;SDS011;42589;45.536;9.032;2023-01-29T14:57:18;24.80;;;17.52;;
56712;SDS011;42589;45.536;9.032;2023-01-29T15:00:26;25.67;;;17.00;;
56712;SDS011;42589;45.536;9.032;2023-01-29T15:07:09;25.48;;;17.25;;
56712;SDS011;42589;45.536;9.032;2023-01-29T15:10:19;25.40;;;18.00;;
56712;SDS011;42589;45.536;9.032;2023-01-29T15:13:30;26.65;;;18.40;;
56712;SDS011;42589;45.536;9.032;2023-01-29T15:16:45;25.30;;;17.52;;
56712;SDS011;42589;45.536;9.032;2023-01-29T15:19:53;27.23;;;17.83;;
56712;SDS011;42589;45.536;9.032;2023-01-29T15:22:55;26.92;;;18.25;;
56712;SDS011;42589;45.536;9.032;2023-01-29T15:25:57;27.33;;;18.23;;
56712;SDS011;42589;45.536;9.032;2023-01-29T15:29:00;26.65;;;17.95;;
56712;SDS011;42589;45.536;9.032;2023-01-29T15:32:02;28.02;;;18.00;;
56712;SDS011;42589;45.536;9.032;2023-01-29T15:35:12;24.90;;;16.75;;
56712;SDS011;42589;45.536;9.032;2023-01-29T15:41:20;26.02;;;17.08;;
56712;SDS011;42589;45.536;9.032;2023-01-29T15:44:22;24.33;;;16.90;;
56712;SDS011;42589;45.536;9.032;2023-01-29T15:47:25;24.98;;;17.48;;
56712;SDS011;42589;45.536;9.032;2023-01-29T15:50:31;26.88;;;18.23;;
56712;SDS011;42589;45.536;9.032;2023-01-29T15:57:05;26.13;;;18.23;;
56712;SDS011;42589;45.536;9.032;2023-01-29T16:00:22;26.88;;;18.15;;
56712;SDS011;42589;45.536;9.032;2023-01-29T16:03:27;27.77;;;19.10;;
56712;SDS011;42589;45.536;9.032;2023-01-29T16:06:34;28.00;;;18.48;;
56712;SDS011;42589;45.536;9.032;2023-01-29T16:09:37;25.08;;;17.90;;
56712;SDS011;42589;45.536;9.032;2023-01-29T16:12:38;28.38;;;18.60;;
56712;SDS011;42589;45.536;9.032;2023-01-29T16:15:39;28.50;;;17.90;;
56712;SDS011;42589;45.536;9.032;2023-01-29T16:19:12;29.52;;;19.02;;
56712;SDS011;42589;45.536;9.032;2023-01-29T16:22:19;28.45;;;18.98;;
56712;SDS011;42589;45.536;9.032;2023-01-29T16:25:20;30.35;;;18.98;;
56712;SDS011;42589;45.536;9.032;2023-01-29T16:28:30;27.75;;;19.45;;
56712;SDS011;42589;45.536;9.032;2023-01-29T16:31:31;30.52;;;19.83;;
56712;SDS011;42589;45.536;9.032;2023-01-29T16:34:36;29.45;;;20.23;;
56712;SDS011;42589;45.536;9.032;2023-01-29T16:37:39;28.90;;;19.00;;
56712;SDS011;42589;45.536;9.032;2023-01-29T16:40:40;32.70;;;20.85;;
56712;SDS011;42589;45.536;9.032;2023-01-29T16:50:30;31.10;;;19.90;;
56712;SDS011;42589;45.536;9.032;2023-01-29T16:53:33;31.58;;;20.50;;
56712;SDS011;42589;45.536;9.032;2023-01-29T16:56:35;32.25;;;20.45;;
56712;SDS011;42589;45.536;9.032;2023-01-29T16:59:38;31.67;;;20.70;;
56712;SDS011;42589;45.536;9.032;2023-01-29T17:02:40;31.95;;;20.27;;
56712;SDS011;42589;45.536;9.032;2023-01-29T17:05:41;32.00;;;20.80;;
56712;SDS011;42589;45.536;9.032;2023-01-29T17:08:43;32.72;;;20.50;;
56712;SDS011;42589;45.536;9.032;2023-01-29T17:11:46;30.10;;;19.90;;
56712;SDS011;42589;45.536;9.032;2023-01-29T17:14:53;32.13;;;20.65;;
56712;SDS011;42589;45.536;9.032;2023-01-29T17:18:02;34.00;;;21.52;;
56712;SDS011;42589;45.536;9.032;2023-01-29T17:21:15;32.60;;;21.70;;
56712;SDS011;42589;45.536;9.032;2023-01-29T17:24:16;31.42;;;20.88;;
56712;SDS011;42589;45.536;9.032;2023-01-29T17:27:18;36.97;;;22.50;;
56712;SDS011;42589;45.536;9.032;2023-01-29T17:30:22;35.70;;;22.98;;
56712;SDS011;42589;45.536;9.032;2023-01-29T17:33:27;40.17;;;23.70;;
56712;SDS011;42589;45.536;9.032;2023-01-29T17:36:28;37.70;;;23.63;;
56712;SDS011;42589;45.536;9.032;2023-01-29T17:39:29;39.10;;;23.13;;
56712;SDS011;42589;45.536;9.032;2023-01-29T17:42:30;38.45;;;23.10;;
56712;SDS011;42589;45.536;9.032;2023-01-29T17:45:34;39.97;;;24.33;;
56712;SDS011;42589;45.536;9.032;2023-01-29T17:48:52;37.92;;;23.00;;
56712;SDS011;42589;45.536;9.032;2023-01-29T17:51:55;37.63;;;22.67;;
56712;SDS011;42589;45.536;9.032;2023-01-29T17:54:56;39.47;;;23.70;;
56712;SDS011;42589;45.536;9.032;2023-01-29T17:57:57;36.03;;;23.42;;
56712;SDS011;42589;45.536;9.032;2023-01-29T18:00:58;36.90;;;24.08;;
56712;SDS011;42589;45.536;9.032;2023-01-29T18:03:59;38.28;;;23.88;;
56712;SDS011;42589;45.536;9.032;2023-01-29T18:07:00;35.13;;;23.13;;
56712;SDS011;42589;45.536;9.032;2023-01-29T18:10:02;37.05;;;24.30;;
56712;SDS011;42589;45.536;9.032;2023-01-29T18:13:03;40.78;;;24.88;;
56712;SDS011;42589;45.536;9.032;2023-01-29T18:16:04;39.75;;;24.73;;
56712;SDS011;42589;45.536;9.032;2023-01-29T18:22:21;39.90;;;25.48;;
56712;SDS011;42589;45.536;9.032;2023-01-29T18:25:22;41.20;;;26.23;;
56712;SDS011;42589;45.536;9.032;2023-01-29T18:28:24;42.88;;;25.60;;
56712;SDS011;42589;45.536;9.032;2023-01-29T18:31:24;44.50;;;26.13;;
56712;SDS011;42589;45.536;9.032;2023-01-29T18:34:26;38.35;;;25.05;;
56712;SDS011;42589;45.536;9.032;2023-01-29T18:37:27;39.60;;;25.17;;
56712;SDS011;42589;45.536;9.032;2023-01-29T18:40:32;37.83;;;24.13;;
56712;SDS011;42589;45.536;9.032;2023-01-29T18:43:33;37.75;;;24.23;;
56712;SDS011;42589;45.536;9.032;2023-01-29T18:46:34;41.83;;;26.08;;
56712;SDS011;42589;45.536;9.032;2023-01-29T18:49:35;38.22;;;24.55;;
56712;SDS011;42589;45.536;9.032;2023-01-29T18:52:38;38.70;;;25.20;;
56712;SDS011;42589;45.536;9.032;2023-01-29T18:55:39;39.35;;;25.13;;
56712;SDS011;42589;45.536;9.032;2023-01-29T18:58:40;40.22;;;26.50;;
56712;SDS011;42589;45.536;9.032;2023-01-29T19:01:43;38.88;;;25.88;;
56712;SDS011;42589;45.536;9.032;2023-01-29T19:04:47;37.38;;;24.60;;
56712;SDS011;42589;45.536;9.032;2023-01-29T19:07:48;39.75;;;25.77;;
56712;SDS011;42589;45.536;9.032;2023-01-29T19:10:49;39.95;;;25.15;;
56712;SDS011;42589;45.536;9.032;2023-01-29T19:13:53;39.63;;;25.70;;
56712;SDS011;42589;45.536;9.032;2023-01-29T19:16:55;41.70;;;24.05;;
56712;SDS011;42589;45.536;9.032;2023-01-29T19:19:56;36.47;;;24.70;;
56712;SDS011;42589;45.536;9.032;2023-01-29T19:23:01;38.60;;;25.13;;
56712;SDS011;42589;45.536;9.032;2023-01-29T19:26:03;38.47;;;24.85;;
56712;SDS011;42589;45.536;9.032;2023-01-29T19:29:03;42.95;;;26.23;;
56712;SDS011;42589;45.536;9.032;2023-01-29T19:32:08;42.67;;;25.05;;
56712;SDS011;42589;45.536;9.032;2023-01-29T19:35:10;44.28;;;25.67;;
56712;SDS011;42589;45.536;9.032;2023-01-29T19:38:11;40.97;;;25.98;;
56712;SDS011;42589;45.536;9.032;2023-01-29T19:41:17;43.28;;;27.92;;
56712;SDS011;42589;45.536;9.032;2023-01-29T19:44:18;44.30;;;28.05;;
56712;SDS011;42589;45.536;9.032;2023-01-29T19:47:20;45.65;;;29.38;;
56712;SDS011;42589;45.536;9.032;2023-01-29T19:50:23;45.95;;;29.45;;
56712;SDS011;42589;45.536;9.032;2023-01-29T19:53:23;48.38;;;29.73;;
56712;SDS011;42589;45.536;9.032;2023-01-29T19:56:26;47.20;;;31.42;;
56712;SDS011;42589;45.536;9.032;2023-01-29T19:59:27;47.95;;;31.38;;
56712;SDS011;42589;45.536;9.032;2023-01-29T20:02:30;53.92;;;33.50;;
56712;SDS011;42589;45.536;9.032;2023-01-29T20:05:34;56.75;;;36.13;;
56712;SDS011;42589;45.536;9.032;2023-01-29T20:08:59;60.50;;;37.25;;
56712;SDS011;42589;45.536;9.032;2023-01-29T20:12:01;61.95;;;38.78;;
56712;SDS011;42589;45.536;9.032;2023-01-29T20:15:03;64.38;;;40.25;;
56712;SDS011;42589;45.536;9.032;2023-01-29T20:18:04;60.67;;;39.45;;
56712;SDS011;42589;45.536;9.032;2023-01-29T20:21:12;66.97;;;42.35;;
56712;SDS011;42589;45.536;9.032;2023-01-29T20:24:14;67.03;;;42.40;;
56712;SDS011;42589;45.536;9.032;2023-01-29T20:27:15;63.88;;;41.42;;
56712;SDS011;42589;45.536;9.032;2023-01-29T20:30:17;70.85;;;43.55;;
56712;SDS011;42589;45.536;9.032;2023-01-29T20:33:17;69.10;;;45.33;;
56712;SDS011;42589;45.536;9.032;2023-01-29T20:36:22;67.25;;;44.78;;
56712;SDS011;42589;45.536;9.032;2023-01-29T20:39:23;70.25;;;43.95;;
56712;SDS011;42589;45.536;9.032;2023-01-29T20:42:24;68.13;;;43.72;;
56712;SDS011;42589;45.536;9.032;2023-01-29T20:45:26;70.53;;;45.17;;